Norwegian Wind — C6LG6 — position and weather

sailwx.info

Track history (hours):
 
Tides and Currents Weather Stations Pressure Air Temp Water Temp Dewpoint Dewpoint Depression Visibility Wind Speed Wind Dir Waves Ship Positions

Norwegian Wind

Operator: Norwegian Cruise Line

Last reported at 2018-Feb-25 21:00 UTC. Time now 2018-Feb-26 01:06 UTC.
Position N 24°24' E 123°54'.

Type: Passenger vessel. MMSI: 308273000.

Wind from 010 at 33 knots

Barometer 1019.1 mb
Air temperature 19.0 ° C
Visibility: greater than 10.8 NM
Dewpoint 15.9 ° C

Date/timePositionNaut miles runAvg speedWind from/ knotsBaromVisibWave heightAir tempDewpointWater temp
2018-Feb-25 21:00N 24°24' E 123°54'2211.9 010 / 331019.110.8 19.015.9
2018-Feb-25 19:07N 24°38' E 123°34'111.8
2018-Feb-25 19:00N 24°38' E 123°33'611.0
2018-Feb-25 18:30N 24°40' E 123°28'510.9
2018-Feb-25 18:00N 24°43' E 123°22'4236.4
2018-Feb-25 18:00N 24°42' E 123°18'3 5.6 010 / 331019.110.8 19.015.9
2018-Feb-25 17:30N 24°45' E 123°17'510.2
2018-Feb-25 17:00N 24°46' E 123°12'5 9.9
2018-Feb-25 16:30N 24°48' E 123°07'5 9.5
2018-Feb-25 16:00N 24°50' E 123°02'5 9.7
2018-Feb-25 15:30N 24°51' E 122°57'5 9.6
2018-Feb-25 15:00N 24°52' E 122°51'510.1
2018-Feb-25 14:30N 24°54' E 122°46'2610.4
2018-Feb-25 12:00N 25°00' E 122°18'1410.7 020 / 351021.110.8 19.015.9
2018-Feb-25 10:39N 25°08' E 122°05'411.0
2018-Feb-25 10:18N 25°09' E 122°01'310.9
2018-Feb-25 10:00N 25°10' E 121°57'510.9
2018-Feb-25 09:30N 25°12' E 121°52'511.0
2018-Feb-25 09:00N 25°11' E 121°46'3 6.3
2018-Feb-25 08:30N 25°08' E 121°45'0 0.0
2018-Feb-25 07:59N 25°08' E 121°45'0 0.0
2018-Feb-25 07:29N 25°08' E 121°45'0 0.0
2018-Feb-25 06:59N 25°08' E 121°45'0 0.0
2018-Feb-25 06:29N 25°08' E 121°45'0 0.0
2018-Feb-25 05:59N 25°08' E 121°45'0 0.0
2018-Feb-25 05:29N 25°08' E 121°45'0 0.0
2018-Feb-25 04:56N 25°08' E 121°45'0 0.0
2018-Feb-25 04:29N 25°08' E 121°45'0 0.0
2018-Feb-25 03:59N 25°08' E 121°45'0 0.0
2018-Feb-25 03:29N 25°08' E 121°45'0 0.0
2018-Feb-25 02:59N 25°08' E 121°45'0 0.2
2018-Feb-25 02:30N 25°08' E 121°45'1 3.0
2018-Feb-25 02:00N 25°10' E 121°45'510.4
2018-Feb-25 01:30N 25°15' E 121°45'4 7.8
2018-Feb-25 01:00N 25°17' E 121°48'4 8.0
2018-Feb-25 00:30N 25°17' E 121°53'2 3.7
2018-Feb-25 00:00N 25°16' E 121°51'5332.7
2018-Feb-25 00:00N 25°12' E 121°48'714.2 340 / 141020.1 5.4 17.015.4
2018-Feb-24 23:30N 25°19' E 121°47'4 7.9
2018-Feb-24 23:00N 25°18' E 121°43'2 3.9
2018-Feb-24 22:30N 25°16' E 121°43'0 0.9
2018-Feb-24 22:00N 25°17' E 121°43'0 0.7
2018-Feb-24 21:30N 25°17' E 121°43'5 9.4
2018-Feb-24 21:00N 25°12' E 121°42'5635.6 270 / 61019.1 5.4 17.015.4
2018-Feb-24 20:59N 25°17' E 121°43'0 0.3
2018-Feb-24 20:30N 25°17' E 121°43'0 0.8
2018-Feb-24 20:00N 25°17' E 121°43'1 1.1
2018-Feb-24 19:30N 25°18' E 121°43'1 1.3
2018-Feb-24 19:00N 25°17' E 121°44'1 1.1
2018-Feb-24 18:30N 25°17' E 121°45'0 0.9
2018-Feb-24 18:00N 25°17' E 121°45'6485.0
2018-Feb-24 18:00N 25°12' E 121°42'612.0 270 / 121019.1 5.4 17.015.4
2018-Feb-24 17:30N 25°17' E 121°46'0 0.3
2018-Feb-24 17:00N 25°17' E 121°46'0 0.6
2018-Feb-24 16:31N 25°17' E 121°46'0 0.8
2018-Feb-24 16:00N 25°17' E 121°46'0 1.0
2018-Feb-24 15:30N 25°18' E 121°47'1 1.1
2018-Feb-24 15:00N 25°18' E 121°47'5390.7
2018-Feb-24 15:00N 25°18' E 121°42'4 9.0 340 / 81019.1 5.4 19.015.9
2018-Feb-24 14:30N 25°19' E 121°47'0 0.8
2018-Feb-24 14:00N 25°19' E 121°47'0 0.9
2018-Feb-24 13:30N 25°19' E 121°46'1 1.0
2018-Feb-24 13:00N 25°20' E 121°46'1 1.4
2018-Feb-24 12:30N 25°20' E 121°46'4 7.8
2018-Feb-24 12:00N 25°18' E 121°42'416.0 330 / 121020.1 5.4 19.015.9
2018-Feb-24 11:44N 25°21' E 121°45'0 1.3
2018-Feb-24 11:30N 25°21' E 121°45'1 1.2
2018-Feb-24 10:57N 25°22' E 121°44'0 1.0
2018-Feb-24 10:30N 25°22' E 121°44'0 1.0
2018-Feb-24 10:00N 25°23' E 121°44'0 0.6
2018-Feb-24 09:15N 25°23' E 121°44'621.2
2018-Feb-24 09:00N 25°18' E 121°42'680.1 350 / 41019.1 5.4 18.016.4
2018-Feb-24 08:55N 25°23' E 121°44'2 3.8
2018-Feb-24 08:28N 25°22' E 121°44'3 6.9
2018-Feb-24 08:00N 25°18' E 121°44'3 6.2
2018-Feb-24 07:30N 25°18' E 121°47'510.1
2018-Feb-24 07:00N 25°17' E 121°53'612.2
2018-Feb-24 06:31N 25°14' E 121°58'814.9
2018-Feb-24 06:00N 25°06' E 122°00'2512.8 310 / 81021.010.8 24.019.6
2018-Feb-24 04:05N 24°52' E 122°22'212.3
2018-Feb-24 03:57N 24°51' E 122°24'612.7
2018-Feb-24 03:30N 24°47' E 122°28'612.8
2018-Feb-24 03:00N 24°43' E 122°34'4230.3
2018-Feb-24 03:00N 24°42' E 122°30'917.7 200 / 161021.010.8 24.019.6
2018-Feb-24 02:30N 24°39' E 122°39'713.3
2018-Feb-24 02:00N 24°34' E 122°44'712.9
2018-Feb-24 01:30N 24°29' E 122°49'610.5
2018-Feb-24 00:58N 24°27' E 122°55'511.1
2018-Feb-24 00:30N 24°32' E 122°55'4 8.5
2018-Feb-24 00:00N 24°36' E 122°52'4387.6
2018-Feb-24 00:00N 24°36' E 122°48'2 3.7
2018-Feb-23 23:30N 24°37' E 122°50'0 0.9
2018-Feb-23 23:00N 24°36' E 122°50'1 1.4
2018-Feb-23 22:30N 24°36' E 122°50'1 1.8
2018-Feb-23 22:00N 24°35' E 122°50'1 2.1
2018-Feb-23 21:30N 24°34' E 122°50'3 6.1
2018-Feb-23 21:00N 24°35' E 122°47'382371.0
2018-Feb-23 21:00N 24°30' E 122°06'3469.7 090 / 41020.110.8 21.018.0
2018-Feb-23 20:30N 24°38' E 122°42'611.1
2018-Feb-23 19:59N 24°41' E 122°37'511.0
2018-Feb-23 19:30N 24°45' E 122°32'510.3
2018-Feb-23 19:00N 24°48' E 122°28'4 8.8
2018-Feb-23 18:30N 24°51' E 122°25'712.9
2018-Feb-23 18:00N 24°54' E 122°18'20 8.5 130 / 121020.110.8 21.018.0
2018-Feb-23 15:40N 25°08' E 122°02'210.1
2018-Feb-23 15:27N 25°09' E 122°01'510.0
2018-Feb-23 15:00N 25°11' E 121°56'510.0
2018-Feb-23 14:30N 25°12' E 121°51'611.1
2018-Feb-23 14:00N 25°10' E 121°45'2 3.9
2018-Feb-23 13:31N 25°08' E 121°45'0 0.0
2018-Feb-23 12:58N 25°08' E 121°45'0 0.0
2018-Feb-23 12:28N 25°08' E 121°45'3 6.6
2018-Feb-23 12:00N 25°06' E 121°42'3109.1 050 / 61022.110.8 19.015.9
2018-Feb-23 11:58N 25°08' E 121°45'0 0.0
2018-Feb-23 11:28N 25°08' E 121°45'0 0.0
2018-Feb-23 10:58N 25°08' E 121°45'0 0.0
2018-Feb-23 10:30N 25°08' E 121°45'0 0.0
2018-Feb-23 10:00N 25°08' E 121°45'0 0.0
2018-Feb-23 09:30N 25°08' E 121°45'0 0.0
2018-Feb-23 09:00N 25°08' E 121°45'0 0.0
2018-Feb-23 08:30N 25°08' E 121°45'1 2.5
2018-Feb-23 08:00N 25°09' E 121°45'510.2
2018-Feb-23 07:30N 25°14' E 121°45'4 7.9
2018-Feb-23 07:00N 25°16' E 121°49'611.2
2018-Feb-23 06:30N 25°19' E 121°54'713.6
2018-Feb-23 05:58N 25°18' E 122°02'613.1
2018-Feb-23 05:30N 25°17' E 122°09'  
2018-Feb-20 12:17N 25°04' E 123°21'310.7
2018-Feb-20 12:00N 25°04' E 123°18'510.4
2018-Feb-20 11:30N 25°05' E 123°12'611.4
2018-Feb-20 11:00N 25°05' E 123°06'611.4
2018-Feb-20 10:29N 25°06' E 122°59'2617.7
2018-Feb-20 09:00N 25°06' E 122°30'2413.5 050 / 141014.0 5.4 22.019.0
2018-Feb-20 07:14N 25°11' E 122°04'416.8
2018-Feb-20 07:01N 25°11' E 122°00'816.9
2018-Feb-20 06:31N 25°12' E 121°51'611.5
2018-Feb-20 06:00N 25°09' E 121°45'1 2.4
2018-Feb-20 05:29N 25°08' E 121°45'0 0.0
2018-Feb-20 04:59N 25°08' E 121°45'0 0.0
2018-Feb-20 04:29N 25°08' E 121°45'0 0.0
2018-Feb-20 03:59N 25°08' E 121°45'0 0.0
2018-Feb-20 03:29N 25°08' E 121°45'3 6.3
2018-Feb-20 03:00N 25°06' E 121°42'3374.6 330 / 81018.1 5.4 20.016.9
2018-Feb-20 02:59N 25°08' E 121°45'0 0.0
2018-Feb-20 02:29N 25°08' E 121°45'0 0.0
2018-Feb-20 01:59N 25°08' E 121°45'0 0.0
2018-Feb-20 01:29N 25°08' E 121°45'0 0.0
2018-Feb-20 00:59N 25°08' E 121°45'0 0.0
2018-Feb-20 00:29N 25°08' E 121°45'4 9.1
2018-Feb-20 00:00N 25°12' E 121°42'4557.6 330 / 81019.1 5.4 18.014.8
2018-Feb-19 23:59N 25°08' E 121°45'0 0.0
2018-Feb-19 23:29N 25°08' E 121°45'0 0.0
2018-Feb-19 22:59N 25°08' E 121°45'0 0.1
2018-Feb-19 22:29N 25°08' E 121°45'1 2.3
2018-Feb-19 22:01N 25°09' E 121°45'4 8.9
2018-Feb-19 21:30N 25°14' E 121°45'4 7.6
2018-Feb-19 21:00N 25°14' E 121°50'3211.4
2018-Feb-19 21:00N 25°12' E 121°48'611.3 330 / 161016.1 5.4 20.016.9
2018-Feb-19 20:30N 25°13' E 121°54'5 9.5
2018-Feb-19 20:00N 25°11' E 121°59'5 9.0
2018-Feb-19 19:30N 25°10' E 122°04'1711.0
2018-Feb-19 18:00N 25°00' E 122°18'1011.8 340 / 161016.0 5.4 23.020.1
2018-Feb-19 17:07N 25°02' E 122°29'110.8
2018-Feb-19 17:00N 25°02' E 122°30'611.2
2018-Feb-19 16:30N 24°60' E 122°36'611.7
2018-Feb-19 16:00N 24°57' E 122°42'611.6
2018-Feb-19 15:30N 24°55' E 122°48'611.7
2018-Feb-19 15:00N 24°52' E 122°53'4270.5
2018-Feb-19 15:00N 24°48' E 122°54'510.6 220 / 121017.010.8 24.021.1
2018-Feb-19 14:30N 24°50' E 122°59'510.8
2018-Feb-19 14:00N 24°48' E 123°05'510.1
2018-Feb-19 13:30N 24°46' E 123°10'5 9.9
2018-Feb-19 13:00N 24°45' E 123°15'5 9.9
2018-Feb-19 12:30N 24°43' E 123°20'510.2
2018-Feb-19 12:00N 24°41' E 123°26'6601.7
2018-Feb-19 12:00N 24°36' E 123°24'815.6 180 / 161016.010.8 24.021.1
2018-Feb-19 11:30N 24°40' E 123°31'2610.3
2018-Feb-19 09:00N 24°24' E 123°54'12 4.2 170 / 211018.010.8 28.020.9
2018-Feb-19 06:00N 24°18' E 124°06'0 0.0 160 / 101018.010.8 28.020.9
2018-Feb-19 03:00N 24°18' E 124°06'0 0.0 160 / 101018.010.8 26.021.8
2018-Feb-19 00:00N 24°18' E 124°06'8 2.7 160 / 101019.010.8 24.018.0
2018-Feb-18 21:00N 24°24' E 124°00'1512.0 160 / 141019.1 5.4 22.019.0
2018-Feb-18 19:45N 24°34' E 123°48'711.1
2018-Feb-18 19:05N 24°37' E 123°40'111.5
2018-Feb-18 18:59N 24°37' E 123°39'511.2
2018-Feb-18 18:30N 24°39' E 123°33'611.5
2018-Feb-18 18:00N 24°41' E 123°28'3220.0
2018-Feb-18 18:00N 24°42' E 123°24'2 4.6 160 / 141019.1 5.4 22.019.0
2018-Feb-18 17:30N 24°43' E 123°22'611.1
2018-Feb-18 17:00N 24°44' E 123°16'611.3
2018-Feb-18 16:30N 24°46' E 123°10'611.8
2018-Feb-18 16:00N 24°48' E 123°04'611.3
2018-Feb-18 15:30N 24°50' E 122°58'511.0
2018-Feb-18 15:00N 24°52' E 122°52'510.0
2018-Feb-18 14:30N 24°54' E 122°47'5 9.7
2018-Feb-18 14:00N 24°57' E 122°43'5 9.7
2018-Feb-18 13:30N 24°59' E 122°38'5 9.5
2018-Feb-18 13:00N 25°01' E 122°33'5 9.6
2018-Feb-18 12:30N 25°02' E 122°28'64124.1
2018-Feb-18 12:00N 25°00' E 121°18'4529.7 240 / 191017.110.8 22.019.0
2018-Feb-18 10:29N 25°09' E 122°06'715.3
2018-Feb-18 10:00N 25°12' E 121°59'714.5
2018-Feb-18 09:30N 25°12' E 121°51'611.9
2018-Feb-18 09:00N 25°09' E 121°45'2 2.8
2018-Feb-18 08:28N 25°08' E 121°45'0 0.0
2018-Feb-18 07:58N 25°08' E 121°45'0 0.0
2018-Feb-18 07:28N 25°08' E 121°45'0 0.0
2018-Feb-18 06:55N 25°08' E 121°45'0 0.0
2018-Feb-18 06:28N 25°08' E 121°45'3 6.6
2018-Feb-18 06:00N 25°06' E 121°42'3102.2 040 / 81020.110.8 23.018.5
2018-Feb-18 05:58N 25°08' E 121°45'0 0.0
2018-Feb-18 05:28N 25°08' E 121°45'0 0.0
2018-Feb-18 04:58N 25°08' E 121°45'0 0.0
2018-Feb-18 04:28N 25°08' E 121°45'0 0.0
2018-Feb-18 03:52N 25°08' E 121°45'0 0.0
2018-Feb-18 03:28N 25°08' E 121°45'3 6.6
2018-Feb-18 03:00N 25°06' E 121°42'338.9 040 / 81020.110.8 23.018.5
2018-Feb-18 02:55N 25°08' E 121°45'0 0.4
2018-Feb-18 02:31N 25°08' E 121°45'2 3.3
2018-Feb-18 02:00N 25°10' E 121°45'612.2
2018-Feb-18 01:30N 25°16' E 121°43'1 1.8
2018-Feb-18 01:00N 25°16' E 121°44'1 1.9
2018-Feb-18 00:30N 25°17' E 121°45'1 1.7
2018-Feb-18 00:01N 25°17' E 121°46'6364.9
2018-Feb-18 00:00N 25°12' E 121°42'714.0 300 / 81021.1 5.4 21.016.4
2018-Feb-17 23:30N 25°17' E 121°47'0 0.7
2018-Feb-17 23:00N 25°17' E 121°47'4 8.3
2018-Feb-17 22:30N 25°14' E 121°50'5 9.2
2018-Feb-17 22:00N 25°11' E 121°53'7428.7
2018-Feb-17 22:00N 25°06' E 121°48'714.9 090 / 81019.1 5.4 20.016.9
2018-Feb-17 21:30N 25°11' E 121°54'1 1.1
2018-Feb-17 21:00N 25°12' E 121°54'1 1.3
2018-Feb-17 20:30N 25°12' E 121°53'1 1.3
2018-Feb-17 20:00N 25°13' E 121°53'1 1.4
2018-Feb-17 19:30N 25°14' E 121°53'1 1.5
2018-Feb-17 19:00N 25°14' E 121°53'1 1.7
2018-Feb-17 18:30N 25°15' E 121°53'610.8
2018-Feb-17 18:00N 25°12' E 121°48'6350.3 140 / 161019.1 5.4 20.016.9
2018-Feb-17 17:58N 25°16' E 121°53'1 1.3
2018-Feb-17 17:30N 25°17' E 121°53'0 0.2
2018-Feb-17 17:00N 25°17' E 121°53'2 4.0
2018-Feb-17 16:30N 25°17' E 121°55'4 7.2
2018-Feb-17 16:00N 25°19' E 121°51'3 6.8
2018-Feb-17 15:30N 25°20' E 121°48'3 6.9
2018-Feb-17 15:00N 25°21' E 121°44'4280.0
2018-Feb-17 15:00N 25°18' E 121°42'4 7.2 130 / 191019.110.8 20.016.9
2018-Feb-17 14:30N 25°21' E 121°41'2 3.6
2018-Feb-17 14:00N 25°20' E 121°41'1 2.9
2018-Feb-17 13:30N 25°20' E 121°42'2 3.5
2018-Feb-17 13:00N 25°20' E 121°44'2 3.0
2018-Feb-17 12:30N 25°20' E 121°46'2 3.1
2018-Feb-17 12:00N 25°20' E 121°47'2115.4
2018-Feb-17 12:00N 25°18' E 121°48'2 4.7 090 / 191020.1 5.4 20.016.9
2018-Feb-17 11:31N 25°20' E 121°49'1 2.6
2018-Feb-17 11:01N 25°20' E 121°51'1 2.1
2018-Feb-17 10:30N 25°19' E 121°52'1 1.7
2018-Feb-17 10:00N 25°19' E 121°52'4 7.2
2018-Feb-17 09:31N 25°16' E 121°54'510.1
2018-Feb-17 09:00N 25°12' E 121°58'7605.4
2018-Feb-17 09:00N 25°06' E 121°54'815.7 090 / 141020.1 5.4 20.016.9
2018-Feb-17 08:31N 25°09' E 122°02'1910.8
2018-Feb-17 06:46N 24°60' E 122°20'311.5
2018-Feb-17 06:28N 24°58' E 122°23'2858.2
2018-Feb-17 06:00N 24°36' E 122°42'241484.3 050 / 251021.110.8 20.016.9
2018-Feb-17 05:59N 24°56' E 122°27'0 0.7
2018-Feb-17 05:30N 24°56' E 122°27'1 1.2
2018-Feb-17 05:00N 24°56' E 122°28'3 6.6
2018-Feb-17 04:31N 24°54' E 122°31'510.1
2018-Feb-17 04:00N 24°50' E 122°35'510.7
2018-Feb-17 03:30N 24°46' E 122°38'510.3
2018-Feb-17 03:01N 24°42' E 122°42'6343.4
2018-Feb-17 03:00N 24°36' E 122°42'3 5.8 050 / 251021.110.8 20.016.9
2018-Feb-17 02:30N 24°38' E 122°45'510.3
2018-Feb-17 02:00N 24°33' E 122°48'5 9.8
2018-Feb-17 01:30N 24°29' E 122°51'4 8.8
2018-Feb-17 01:01N 24°26' E 122°54'3 6.7
2018-Feb-17 00:30N 24°30' E 122°54'1 2.2
2018-Feb-17 00:00N 24°30' E 122°53'5334.2
2018-Feb-17 00:00N 24°30' E 122°48'4 9.2 020 / 291020.1 5.4 20.015.3
2018-Feb-16 23:31N 24°31' E 122°53'1 1.8
2018-Feb-16 23:00N 24°32' E 122°52'1 1.7
2018-Feb-16 22:31N 24°33' E 122°52'1 1.8
2018-Feb-16 22:01N 24°34' E 122°51'1 2.0
2018-Feb-16 21:31N 24°34' E 122°50'5 9.5
2018-Feb-16 21:00N 24°37' E 122°46'4254.6
2018-Feb-16 21:00N 24°36' E 122°42'3 6.5 010 / 311018.1 5.4 20.015.3
2018-Feb-16 20:31N 24°39' E 122°42'5 9.3
2018-Feb-16 20:01N 24°42' E 122°37'5 9.3
2018-Feb-16 19:31N 24°45' E 122°33'5 9.4
2018-Feb-16 19:01N 24°47' E 122°29'5 9.6
2018-Feb-16 18:31N 24°50' E 122°25'64123.6
2018-Feb-16 18:00N 25°54' E 122°18'60716.1 010 / 311018.1 5.4 20.015.3
2018-Feb-16 17:54N 24°54' E 122°20'1710.0
2018-Feb-16 16:13N 25°05' E 122°06'2 9.4
2018-Feb-16 16:00N 25°07' E 122°04'5 9.2
2018-Feb-16 15:30N 25°09' E 122°00'510.6
2018-Feb-16 15:01N 25°11' E 121°55'510.8
2018-Feb-16 14:31N 25°12' E 121°49'5 9.6
2018-Feb-16 14:00N 25°09' E 121°45'1 1.6
2018-Feb-16 13:30N 25°08' E 121°45'0 0.0
2018-Feb-16 12:57N 25°08' E 121°45'0 0.0
2018-Feb-16 12:30N 25°08' E 121°45'0 0.0
2018-Feb-16 12:00N 25°08' E 121°45'3624.3
2018-Feb-16 12:00N 25°06' E 121°42'3 6.3 340 / 61017.110.8 19.017.5
2018-Feb-16 11:30N 25°08' E 121°45'0 0.0
2018-Feb-16 11:00N 25°08' E 121°45'0 0.0
2018-Feb-16 10:30N 25°08' E 121°45'0 0.0
2018-Feb-16 10:00N 25°08' E 121°45'0 0.0
2018-Feb-16 09:30N 25°08' E 121°45'0 0.0
2018-Feb-16 09:00N 25°08' E 121°45'0 0.4
2018-Feb-16 08:31N 25°08' E 121°45'2 3.4
2018-Feb-16 08:00N 25°10' E 121°45'4 8.7
2018-Feb-16 07:30N 25°14' E 121°47'612.4
2018-Feb-16 07:00N 25°12' E 121°54'6363.6
2018-Feb-16 07:00N 25°06' E 121°54'713.5 340 / 101016.0 5.4 26.021.8
2018-Feb-16 06:30N 25°10' E 121°60'4 7.3
2018-Feb-16 06:00N 25°10' E 122°04'510.7
2018-Feb-16 05:30N 25°15' E 122°07'811.1
2018-Feb-16 04:47N 25°15' E 122°15'310.7
2018-Feb-16 04:30N 25°16' E 122°19'510.1
2018-Feb-16 04:01N 25°15' E 122°24'510.1
2018-Feb-16 03:31N 25°15' E 122°30'510.7
2018-Feb-16 03:00N 25°15' E 122°36'3344.3
2018-Feb-16 03:00N 25°12' E 122°36'612.3 240 / 101016.010.8 26.021.8
2018-Feb-16 02:30N 25°15' E 122°42'2811.0
2018-Feb-16 00:00N 25°12' E 123°12'4916.4 170 / 101016.010.8 22.020.6
2018-Feb-15 21:00N 25°18' E 124°06'   170 / 101016.010.8 22.020.6
Track history (hours):
 
Tides and Currents Weather Stations Pressure Air Temp Water Temp Dewpoint Dewpoint Depression Visibility Wind Speed Wind Dir Waves Ship Positions

Norwegian Wind

Operator: Norwegian Cruise Line

Last reported at 2018-Feb-25 21:00 UTC. Time now 2018-Feb-26 01:06 UTC.
Position N 24°24' E 123°54'.

Type: Passenger vessel. MMSI: 308273000.

Wind from 010 at 33 knots

Barometer 1019.1 mb
Air temperature 19.0 ° C
Visibility: greater than 10.8 NM
Dewpoint 15.9 ° C

Date/timePositionNaut miles runAvg speedWind from/ knotsBaromVisibWave heightAir tempDewpointWater temp
2018-Feb-25 21:00N 24°24' E 123°54'2211.9 010 / 331019.110.8 19.015.9
2018-Feb-25 19:07N 24°38' E 123°34'111.8
2018-Feb-25 19:00N 24°38' E 123°33'611.0
2018-Feb-25 18:30N 24°40' E 123°28'510.9
2018-Feb-25 18:00N 24°43' E 123°22'4236.4
2018-Feb-25 18:00N 24°42' E 123°18'3 5.6 010 / 331019.110.8 19.015.9
2018-Feb-25 17:30N 24°45' E 123°17'510.2
2018-Feb-25 17:00N 24°46' E 123°12'5 9.9
2018-Feb-25 16:30N 24°48' E 123°07'5 9.5
2018-Feb-25 16:00N 24°50' E 123°02'5 9.7
2018-Feb-25 15:30N 24°51' E 122°57'5 9.6
2018-Feb-25 15:00N 24°52' E 122°51'510.1
2018-Feb-25 14:30N 24°54' E 122°46'2610.4
2018-Feb-25 12:00N 25°00' E 122°18'1410.7 020 / 351021.110.8 19.015.9
2018-Feb-25 10:39N 25°08' E 122°05'411.0
2018-Feb-25 10:18N 25°09' E 122°01'310.9
2018-Feb-25 10:00N 25°10' E 121°57'510.9
2018-Feb-25 09:30N 25°12' E 121°52'511.0
2018-Feb-25 09:00N 25°11' E 121°46'3 6.3
2018-Feb-25 08:30N 25°08' E 121°45'0 0.0
2018-Feb-25 07:59N 25°08' E 121°45'0 0.0
2018-Feb-25 07:29N 25°08' E 121°45'0 0.0
2018-Feb-25 06:59N 25°08' E 121°45'0 0.0
2018-Feb-25 06:29N 25°08' E 121°45'0 0.0
2018-Feb-25 05:59N 25°08' E 121°45'0 0.0
2018-Feb-25 05:29N 25°08' E 121°45'0 0.0
2018-Feb-25 04:56N 25°08' E 121°45'0 0.0
2018-Feb-25 04:29N 25°08' E 121°45'0 0.0
2018-Feb-25 03:59N 25°08' E 121°45'0 0.0
2018-Feb-25 03:29N 25°08' E 121°45'0 0.0
2018-Feb-25 02:59N 25°08' E 121°45'0 0.2
2018-Feb-25 02:30N 25°08' E 121°45'1 3.0
2018-Feb-25 02:00N 25°10' E 121°45'510.4
2018-Feb-25 01:30N 25°15' E 121°45'4 7.8
2018-Feb-25 01:00N 25°17' E 121°48'4 8.0
2018-Feb-25 00:30N 25°17' E 121°53'2 3.7
2018-Feb-25 00:00N 25°16' E 121°51'5332.7
2018-Feb-25 00:00N 25°12' E 121°48'714.2 340 / 141020.1 5.4 17.015.4
2018-Feb-24 23:30N 25°19' E 121°47'4 7.9
2018-Feb-24 23:00N 25°18' E 121°43'2 3.9
2018-Feb-24 22:30N 25°16' E 121°43'0 0.9
2018-Feb-24 22:00N 25°17' E 121°43'0 0.7
2018-Feb-24 21:30N 25°17' E 121°43'5 9.4
2018-Feb-24 21:00N 25°12' E 121°42'5635.6 270 / 61019.1 5.4 17.015.4
2018-Feb-24 20:59N 25°17' E 121°43'0 0.3
2018-Feb-24 20:30N 25°17' E 121°43'0 0.8
2018-Feb-24 20:00N 25°17' E 121°43'1 1.1
2018-Feb-24 19:30N 25°18' E 121°43'1 1.3
2018-Feb-24 19:00N 25°17' E 121°44'1 1.1
2018-Feb-24 18:30N 25°17' E 121°45'0 0.9
2018-Feb-24 18:00N 25°17' E 121°45'6485.0
2018-Feb-24 18:00N 25°12' E 121°42'612.0 270 / 121019.1 5.4 17.015.4
2018-Feb-24 17:30N 25°17' E 121°46'0 0.3
2018-Feb-24 17:00N 25°17' E 121°46'0 0.6
2018-Feb-24 16:31N 25°17' E 121°46'0 0.8
2018-Feb-24 16:00N 25°17' E 121°46'0 1.0
2018-Feb-24 15:30N 25°18' E 121°47'1 1.1
2018-Feb-24 15:00N 25°18' E 121°47'5390.7
2018-Feb-24 15:00N 25°18' E 121°42'4 9.0 340 / 81019.1 5.4 19.015.9
2018-Feb-24 14:30N 25°19' E 121°47'0 0.8
2018-Feb-24 14:00N 25°19' E 121°47'0 0.9
2018-Feb-24 13:30N 25°19' E 121°46'1 1.0
2018-Feb-24 13:00N 25°20' E 121°46'1 1.4
2018-Feb-24 12:30N 25°20' E 121°46'4 7.8
2018-Feb-24 12:00N 25°18' E 121°42'416.0 330 / 121020.1 5.4 19.015.9
2018-Feb-24 11:44N 25°21' E 121°45'0 1.3
2018-Feb-24 11:30N 25°21' E 121°45'1 1.2
2018-Feb-24 10:57N 25°22' E 121°44'0 1.0
2018-Feb-24 10:30N 25°22' E 121°44'0 1.0
2018-Feb-24 10:00N 25°23' E 121°44'0 0.6
2018-Feb-24 09:15N 25°23' E 121°44'621.2
2018-Feb-24 09:00N 25°18' E 121°42'680.1 350 / 41019.1 5.4 18.016.4
2018-Feb-24 08:55N 25°23' E 121°44'2 3.8
2018-Feb-24 08:28N 25°22' E 121°44'3 6.9
2018-Feb-24 08:00N 25°18' E 121°44'3 6.2
2018-Feb-24 07:30N 25°18' E 121°47'510.1
2018-Feb-24 07:00N 25°17' E 121°53'612.2
2018-Feb-24 06:31N 25°14' E 121°58'814.9
2018-Feb-24 06:00N 25°06' E 122°00'2512.8 310 / 81021.010.8 24.019.6
2018-Feb-24 04:05N 24°52' E 122°22'212.3
2018-Feb-24 03:57N 24°51' E 122°24'612.7
2018-Feb-24 03:30N 24°47' E 122°28'612.8
2018-Feb-24 03:00N 24°43' E 122°34'4230.3
2018-Feb-24 03:00N 24°42' E 122°30'917.7 200 / 161021.010.8 24.019.6
2018-Feb-24 02:30N 24°39' E 122°39'713.3
2018-Feb-24 02:00N 24°34' E 122°44'712.9
2018-Feb-24 01:30N 24°29' E 122°49'610.5
2018-Feb-24 00:58N 24°27' E 122°55'511.1
2018-Feb-24 00:30N 24°32' E 122°55'4 8.5
2018-Feb-24 00:00N 24°36' E 122°52'4387.6
2018-Feb-24 00:00N 24°36' E 122°48'2 3.7
2018-Feb-23 23:30N 24°37' E 122°50'0 0.9
2018-Feb-23 23:00N 24°36' E 122°50'1 1.4
2018-Feb-23 22:30N 24°36' E 122°50'1 1.8
2018-Feb-23 22:00N 24°35' E 122°50'1 2.1
2018-Feb-23 21:30N 24°34' E 122°50'3 6.1
2018-Feb-23 21:00N 24°35' E 122°47'382371.0
2018-Feb-23 21:00N 24°30' E 122°06'3469.7 090 / 41020.110.8 21.018.0
2018-Feb-23 20:30N 24°38' E 122°42'611.1
2018-Feb-23 19:59N 24°41' E 122°37'511.0
2018-Feb-23 19:30N 24°45' E 122°32'510.3
2018-Feb-23 19:00N 24°48' E 122°28'4 8.8
2018-Feb-23 18:30N 24°51' E 122°25'712.9
2018-Feb-23 18:00N 24°54' E 122°18'20 8.5 130 / 121020.110.8 21.018.0
2018-Feb-23 15:40N 25°08' E 122°02'210.1
2018-Feb-23 15:27N 25°09' E 122°01'510.0
2018-Feb-23 15:00N 25°11' E 121°56'510.0
2018-Feb-23 14:30N 25°12' E 121°51'611.1
2018-Feb-23 14:00N 25°10' E 121°45'2 3.9
2018-Feb-23 13:31N 25°08' E 121°45'0 0.0
2018-Feb-23 12:58N 25°08' E 121°45'0 0.0
2018-Feb-23 12:28N 25°08' E 121°45'3 6.6
2018-Feb-23 12:00N 25°06' E 121°42'3109.1 050 / 61022.110.8 19.015.9
2018-Feb-23 11:58N 25°08' E 121°45'0 0.0
2018-Feb-23 11:28N 25°08' E 121°45'0 0.0
2018-Feb-23 10:58N 25°08' E 121°45'0 0.0
2018-Feb-23 10:30N 25°08' E 121°45'0 0.0
2018-Feb-23 10:00N 25°08' E 121°45'0 0.0
2018-Feb-23 09:30N 25°08' E 121°45'0 0.0
2018-Feb-23 09:00N 25°08' E 121°45'0 0.0
2018-Feb-23 08:30N 25°08' E 121°45'1 2.5
2018-Feb-23 08:00N 25°09' E 121°45'510.2
2018-Feb-23 07:30N 25°14' E 121°45'4 7.9
2018-Feb-23 07:00N 25°16' E 121°49'611.2
2018-Feb-23 06:30N 25°19' E 121°54'713.6
2018-Feb-23 05:58N 25°18' E 122°02'613.1
2018-Feb-23 05:30N 25°17' E 122°09'  
2018-Feb-20 12:17N 25°04' E 123°21'310.7
2018-Feb-20 12:00N 25°04' E 123°18'510.4
2018-Feb-20 11:30N 25°05' E 123°12'611.4
2018-Feb-20 11:00N 25°05' E 123°06'611.4
2018-Feb-20 10:29N 25°06' E 122°59'2617.7
2018-Feb-20 09:00N 25°06' E 122°30'2413.5 050 / 141014.0 5.4 22.019.0
2018-Feb-20 07:14N 25°11' E 122°04'416.8
2018-Feb-20 07:01N 25°11' E 122°00'816.9
2018-Feb-20 06:31N 25°12' E 121°51'611.5
2018-Feb-20 06:00N 25°09' E 121°45'1 2.4
2018-Feb-20 05:29N 25°08' E 121°45'0 0.0
2018-Feb-20 04:59N 25°08' E 121°45'0 0.0
2018-Feb-20 04:29N 25°08' E 121°45'0 0.0
2018-Feb-20 03:59N 25°08' E 121°45'0 0.0
2018-Feb-20 03:29N 25°08' E 121°45'3 6.3
2018-Feb-20 03:00N 25°06' E 121°42'3374.6 330 / 81018.1 5.4 20.016.9
2018-Feb-20 02:59N 25°08' E 121°45'0 0.0
2018-Feb-20 02:29N 25°08' E 121°45'0 0.0
2018-Feb-20 01:59N 25°08' E 121°45'0 0.0
2018-Feb-20 01:29N 25°08' E 121°45'0 0.0
2018-Feb-20 00:59N 25°08' E 121°45'0 0.0
2018-Feb-20 00:29N 25°08' E 121°45'4 9.1
2018-Feb-20 00:00N 25°12' E 121°42'4557.6 330 / 81019.1 5.4 18.014.8
2018-Feb-19 23:59N 25°08' E 121°45'0 0.0
2018-Feb-19 23:29N 25°08' E 121°45'0 0.0
2018-Feb-19 22:59N 25°08' E 121°45'0 0.1
2018-Feb-19 22:29N 25°08' E 121°45'1 2.3
2018-Feb-19 22:01N 25°09' E 121°45'4 8.9
2018-Feb-19 21:30N 25°14' E 121°45'4 7.6
2018-Feb-19 21:00N 25°14' E 121°50'3211.4
2018-Feb-19 21:00N 25°12' E 121°48'611.3 330 / 161016.1 5.4 20.016.9
2018-Feb-19 20:30N 25°13' E 121°54'5 9.5
2018-Feb-19 20:00N 25°11' E 121°59'5 9.0
2018-Feb-19 19:30N 25°10' E 122°04'1711.0
2018-Feb-19 18:00N 25°00' E 122°18'1011.8 340 / 161016.0 5.4 23.020.1
2018-Feb-19 17:07N 25°02' E 122°29'110.8
2018-Feb-19 17:00N 25°02' E 122°30'611.2
2018-Feb-19 16:30N 24°60' E 122°36'611.7
2018-Feb-19 16:00N 24°57' E 122°42'611.6
2018-Feb-19 15:30N 24°55' E 122°48'611.7
2018-Feb-19 15:00N 24°52' E 122°53'4270.5
2018-Feb-19 15:00N 24°48' E 122°54'510.6 220 / 121017.010.8 24.021.1
2018-Feb-19 14:30N 24°50' E 122°59'510.8
2018-Feb-19 14:00N 24°48' E 123°05'510.1
2018-Feb-19 13:30N 24°46' E 123°10'5 9.9
2018-Feb-19 13:00N 24°45' E 123°15'5 9.9
2018-Feb-19 12:30N 24°43' E 123°20'510.2
2018-Feb-19 12:00N 24°41' E 123°26'6601.7
2018-Feb-19 12:00N 24°36' E 123°24'815.6 180 / 161016.010.8 24.021.1
2018-Feb-19 11:30N 24°40' E 123°31'2610.3
2018-Feb-19 09:00N 24°24' E 123°54'12 4.2 170 / 211018.010.8 28.020.9
2018-Feb-19 06:00N 24°18' E 124°06'0 0.0 160 / 101018.010.8 28.020.9
2018-Feb-19 03:00N 24°18' E 124°06'0 0.0 160 / 101018.010.8 26.021.8
2018-Feb-19 00:00N 24°18' E 124°06'8 2.7 160 / 101019.010.8 24.018.0
2018-Feb-18 21:00N 24°24' E 124°00'1512.0 160 / 141019.1 5.4 22.019.0
2018-Feb-18 19:45N 24°34' E 123°48'711.1
2018-Feb-18 19:05N 24°37' E 123°40'111.5
2018-Feb-18 18:59N 24°37' E 123°39'511.2
2018-Feb-18 18:30N 24°39' E 123°33'611.5
2018-Feb-18 18:00N 24°41' E 123°28'3220.0
2018-Feb-18 18:00N 24°42' E 123°24'2 4.6 160 / 141019.1 5.4 22.019.0
2018-Feb-18 17:30N 24°43' E 123°22'611.1
2018-Feb-18 17:00N 24°44' E 123°16'611.3
2018-Feb-18 16:30N 24°46' E 123°10'611.8
2018-Feb-18 16:00N 24°48' E 123°04'611.3
2018-Feb-18 15:30N 24°50' E 122°58'511.0
2018-Feb-18 15:00N 24°52' E 122°52'510.0
2018-Feb-18 14:30N 24°54' E 122°47'5 9.7
2018-Feb-18 14:00N 24°57' E 122°43'5 9.7
2018-Feb-18 13:30N 24°59' E 122°38'5 9.5
2018-Feb-18 13:00N 25°01' E 122°33'5 9.6
2018-Feb-18 12:30N 25°02' E 122°28'64124.1
2018-Feb-18 12:00N 25°00' E 121°18'4529.7 240 / 191017.110.8 22.019.0
2018-Feb-18 10:29N 25°09' E 122°06'715.3
2018-Feb-18 10:00N 25°12' E 121°59'714.5
2018-Feb-18 09:30N 25°12' E 121°51'611.9
2018-Feb-18 09:00N 25°09' E 121°45'2 2.8
2018-Feb-18 08:28N 25°08' E 121°45'0 0.0
2018-Feb-18 07:58N 25°08' E 121°45'0 0.0
2018-Feb-18 07:28N 25°08' E 121°45'0 0.0
2018-Feb-18 06:55N 25°08' E 121°45'0 0.0
2018-Feb-18 06:28N 25°08' E 121°45'3 6.6
2018-Feb-18 06:00N 25°06' E 121°42'3102.2 040 / 81020.110.8 23.018.5
2018-Feb-18 05:58N 25°08' E 121°45'0 0.0
2018-Feb-18 05:28N 25°08' E 121°45'0 0.0
2018-Feb-18 04:58N 25°08' E 121°45'0 0.0
2018-Feb-18 04:28N 25°08' E 121°45'0 0.0
2018-Feb-18 03:52N 25°08' E 121°45'0 0.0
2018-Feb-18 03:28N 25°08' E 121°45'3 6.6
2018-Feb-18 03:00N 25°06' E 121°42'338.9 040 / 81020.110.8 23.018.5
2018-Feb-18 02:55N 25°08' E 121°45'0 0.4
2018-Feb-18 02:31N 25°08' E 121°45'2 3.3
2018-Feb-18 02:00N 25°10' E 121°45'612.2
2018-Feb-18 01:30N 25°16' E 121°43'1 1.8
2018-Feb-18 01:00N 25°16' E 121°44'1 1.9
2018-Feb-18 00:30N 25°17' E 121°45'1 1.7
2018-Feb-18 00:01N 25°17' E 121°46'6364.9
2018-Feb-18 00:00N 25°12' E 121°42'714.0 300 / 81021.1 5.4 21.016.4
2018-Feb-17 23:30N 25°17' E 121°47'0 0.7
2018-Feb-17 23:00N 25°17' E 121°47'4 8.3
2018-Feb-17 22:30N 25°14' E 121°50'5 9.2
2018-Feb-17 22:00N 25°11' E 121°53'7428.7
2018-Feb-17 22:00N 25°06' E 121°48'714.9 090 / 81019.1 5.4 20.016.9
2018-Feb-17 21:30N 25°11' E 121°54'1 1.1
2018-Feb-17 21:00N 25°12' E 121°54'1 1.3
2018-Feb-17 20:30N 25°12' E 121°53'1 1.3
2018-Feb-17 20:00N 25°13' E 121°53'1 1.4
2018-Feb-17 19:30N 25°14' E 121°53'1 1.5
2018-Feb-17 19:00N 25°14' E 121°53'1 1.7
2018-Feb-17 18:30N 25°15' E 121°53'610.8
2018-Feb-17 18:00N 25°12' E 121°48'6350.3 140 / 161019.1 5.4 20.016.9
2018-Feb-17 17:58N 25°16' E 121°53'1 1.3
2018-Feb-17 17:30N 25°17' E 121°53'0 0.2
2018-Feb-17 17:00N 25°17' E 121°53'2 4.0
2018-Feb-17 16:30N 25°17' E 121°55'4 7.2
2018-Feb-17 16:00N 25°19' E 121°51'3 6.8
2018-Feb-17 15:30N 25°20' E 121°48'3 6.9
2018-Feb-17 15:00N 25°21' E 121°44'4280.0
2018-Feb-17 15:00N 25°18' E 121°42'4 7.2 130 / 191019.110.8 20.016.9
2018-Feb-17 14:30N 25°21' E 121°41'2 3.6
2018-Feb-17 14:00N 25°20' E 121°41'1 2.9
2018-Feb-17 13:30N 25°20' E 121°42'2 3.5
2018-Feb-17 13:00N 25°20' E 121°44'2 3.0
2018-Feb-17 12:30N 25°20' E 121°46'2 3.1
2018-Feb-17 12:00N 25°20' E 121°47'2115.4
2018-Feb-17 12:00N 25°18' E 121°48'2 4.7 090 / 191020.1 5.4 20.016.9
2018-Feb-17 11:31N 25°20' E 121°49'1 2.6
2018-Feb-17 11:01N 25°20' E 121°51'1 2.1
2018-Feb-17 10:30N 25°19' E 121°52'1 1.7
2018-Feb-17 10:00N 25°19' E 121°52'4 7.2
2018-Feb-17 09:31N 25°16' E 121°54'510.1
2018-Feb-17 09:00N 25°12' E 121°58'7605.4
2018-Feb-17 09:00N 25°06' E 121°54'815.7 090 / 141020.1 5.4 20.016.9
2018-Feb-17 08:31N 25°09' E 122°02'1910.8
2018-Feb-17 06:46N 24°60' E 122°20'311.5
2018-Feb-17 06:28N 24°58' E 122°23'2858.2
2018-Feb-17 06:00N 24°36' E 122°42'241484.3 050 / 251021.110.8 20.016.9
2018-Feb-17 05:59N 24°56' E 122°27'0 0.7
2018-Feb-17 05:30N 24°56' E 122°27'1 1.2
2018-Feb-17 05:00N 24°56' E 122°28'3 6.6
2018-Feb-17 04:31N 24°54' E 122°31'510.1
2018-Feb-17 04:00N 24°50' E 122°35'510.7
2018-Feb-17 03:30N 24°46' E 122°38'510.3
2018-Feb-17 03:01N 24°42' E 122°42'6343.4
2018-Feb-17 03:00N 24°36' E 122°42'3 5.8 050 / 251021.110.8 20.016.9
2018-Feb-17 02:30N 24°38' E 122°45'510.3
2018-Feb-17 02:00N 24°33' E 122°48'5 9.8
2018-Feb-17 01:30N 24°29' E 122°51'4 8.8
2018-Feb-17 01:01N 24°26' E 122°54'3 6.7
2018-Feb-17 00:30N 24°30' E 122°54'1 2.2
2018-Feb-17 00:00N 24°30' E 122°53'5334.2
2018-Feb-17 00:00N 24°30' E 122°48'4 9.2 020 / 291020.1 5.4 20.015.3
2018-Feb-16 23:31N 24°31' E 122°53'1 1.8
2018-Feb-16 23:00N 24°32' E 122°52'1 1.7
2018-Feb-16 22:31N 24°33' E 122°52'1 1.8
2018-Feb-16 22:01N 24°34' E 122°51'1 2.0
2018-Feb-16 21:31N 24°34' E 122°50'5 9.5
2018-Feb-16 21:00N 24°37' E 122°46'4254.6
2018-Feb-16 21:00N 24°36' E 122°42'3 6.5 010 / 311018.1 5.4 20.015.3
2018-Feb-16 20:31N 24°39' E 122°42'5 9.3
2018-Feb-16 20:01N 24°42' E 122°37'5 9.3
2018-Feb-16 19:31N 24°45' E 122°33'5 9.4
2018-Feb-16 19:01N 24°47' E 122°29'5 9.6
2018-Feb-16 18:31N 24°50' E 122°25'64123.6
2018-Feb-16 18:00N 25°54' E 122°18'60716.1 010 / 311018.1 5.4 20.015.3
2018-Feb-16 17:54N 24°54' E 122°20'1710.0
2018-Feb-16 16:13N 25°05' E 122°06'2 9.4
2018-Feb-16 16:00N 25°07' E 122°04'5 9.2
2018-Feb-16 15:30N 25°09' E 122°00'510.6
2018-Feb-16 15:01N 25°11' E 121°55'510.8
2018-Feb-16 14:31N 25°12' E 121°49'5 9.6
2018-Feb-16 14:00N 25°09' E 121°45'1 1.6
2018-Feb-16 13:30N 25°08' E 121°45'0 0.0
2018-Feb-16 12:57N 25°08' E 121°45'0 0.0
2018-Feb-16 12:30N 25°08' E 121°45'0 0.0
2018-Feb-16 12:00N 25°08' E 121°45'3624.3
2018-Feb-16 12:00N 25°06' E 121°42'3 6.3 340 / 61017.110.8 19.017.5
2018-Feb-16 11:30N 25°08' E 121°45'0 0.0
2018-Feb-16 11:00N 25°08' E 121°45'0 0.0
2018-Feb-16 10:30N 25°08' E 121°45'0 0.0
2018-Feb-16 10:00N 25°08' E 121°45'0 0.0
2018-Feb-16 09:30N 25°08' E 121°45'0 0.0
2018-Feb-16 09:00N 25°08' E 121°45'0 0.4
2018-Feb-16 08:31N 25°08' E 121°45'2 3.4
2018-Feb-16 08:00N 25°10' E 121°45'4 8.7
2018-Feb-16 07:30N 25°14' E 121°47'612.4
2018-Feb-16 07:00N 25°12' E 121°54'6363.6
2018-Feb-16 07:00N 25°06' E 121°54'713.5 340 / 101016.0 5.4 26.021.8
2018-Feb-16 06:30N 25°10' E 121°60'4 7.3
2018-Feb-16 06:00N 25°10' E 122°04'510.7
2018-Feb-16 05:30N 25°15' E 122°07'811.1
2018-Feb-16 04:47N 25°15' E 122°15'310.7
2018-Feb-16 04:30N 25°16' E 122°19'510.1
2018-Feb-16 04:01N 25°15' E 122°24'510.1
2018-Feb-16 03:31N 25°15' E 122°30'510.7
2018-Feb-16 03:00N 25°15' E 122°36'3344.3
2018-Feb-16 03:00N 25°12' E 122°36'612.3 240 / 101016.010.8 26.021.8
2018-Feb-16 02:30N 25°15' E 122°42'2811.0
2018-Feb-16 00:00N 25°12' E 123°12'4916.4 170 / 101016.010.8 22.020.6
2018-Feb-15 21:00N 25°18' E 124°06'   170 / 101016.010.8 22.020.6

Dump ship's entire track history